Time;durP1;ratioP1;P1;durP2;ratioP2;P2;SDS_P1;SDS_P2;PMS_P1;PMS_P2;Temp;Humidity;BMP_temperature;BMP_pressure;BME280_temperature;BME280_humidity;BME280_pressure;Samples;Min_cycle;Max_cycle;Signal;HPM_P1;HPM_P2
2022/05/24 00:02:19;;;;;;;40.50;25.13;;;;;;;13.09;100.00;100097.59;5091132;28;20034;-77
2022/05/24 00:04:44;;;;;;;36.85;23.40;;;;;;;13.00;100.00;100087.53;5091714;28;20031;-77
2022/05/24 00:07:09;;;;;;;34.55;23.05;;;;;;;12.92;100.00;100084.44;5095084;28;20035;-77
2022/05/24 00:09:35;;;;;;;32.28;22.48;;;;;;;12.79;100.00;100087.59;5108798;28;20023;-77
2022/05/24 00:12:00;;;;;;;35.45;22.48;;;;;;;12.70;100.00;100080.16;5112414;28;20040;-77
2022/05/24 00:17:12;;;;;;;32.42;21.35;;;;;;;12.54;100.00;100081.75;5107780;28;20535;-77
2022/05/24 00:19:38;;;;;;;36.97;22.45;;;;;;;12.48;100.00;100082.00;5109623;28;20027;-77
2022/05/24 00:22:04;;;;;;;35.35;22.33;;;;;;;12.45;100.00;100088.22;5111948;28;20020;-77
2022/05/24 00:24:29;;;;;;;34.67;22.48;;;;;;;12.41;100.00;100092.72;5110378;28;20078;-77
2022/05/24 00:26:54;;;;;;;34.45;22.58;;;;;;;12.35;100.00;100093.00;5110663;28;20467;-78
2022/05/24 00:29:19;;;;;;;39.47;23.17;;;;;;;12.31;100.00;100093.19;5113153;28;20123;-77
2022/05/24 00:31:45;;;;;;;38.47;22.80;;;;;;;12.26;100.00;100090.78;5115101;28;20020;-77
2022/05/24 00:34:10;;;;;;;38.15;22.05;;;;;;;12.24;100.00;100087.38;5115657;28;20064;-77
2022/05/24 00:36:35;;;;;;;32.05;20.52;;;;;;;12.18;100.00;100088.47;5112706;28;20027;-77
2022/05/24 00:39:01;;;;;;;37.65;19.65;;;;;;;12.12;100.00;100083.50;5113044;28;20459;-78
2022/05/24 00:41:38;;;;;;;30.58;19.75;;;;;;;11.99;100.00;100076.25;5103250;28;20032;-77
2022/05/24 00:44:12;;;;;;;28.27;19.13;;;;;;;11.96;100.00;100082.44;5095071;28;20024;-77
2022/05/24 00:46:50;;;;;;;31.58;19.25;;;;;;;11.90;100.00;100080.97;5095987;28;20395;-77
2022/05/24 00:49:34;;;;;;;29.90;18.48;;;;;;;11.87;100.00;100088.03;5112343;28;20529;-77
2022/05/24 00:52:15;;;;;;;28.95;18.52;;;;;;;11.78;100.00;100089.25;5115036;28;20098;-78
2022/05/24 00:54:41;;;;;;;32.72;19.08;;;;;;;11.78;100.00;100093.63;5115093;28;20047;-77
2022/05/24 00:57:21;;;;;;;31.95;19.63;;;;;;;11.73;100.00;100083.34;5112177;28;20078;-77
2022/05/24 00:59:52;;;;;;;32.53;19.35;;;;;;;11.70;100.00;100086.09;5111106;28;20030;-77
2022/05/24 01:02:18;;;;;;;31.67;19.10;;;;;;;11.66;100.00;100084.50;5094986;28;20035;-78
2022/05/24 01:04:43;;;;;;;32.38;19.33;;;;;;;11.65;100.00;100077.59;5094893;28;20099;-78
2022/05/24 01:07:09;;;;;;;31.92;17.67;;;;;;;11.57;100.00;100084.88;5098579;28;20028;-77
2022/05/24 01:09:40;;;;;;;26.70;16.42;;;;;;;11.56;100.00;100085.78;5115075;28;20019;-77
2022/05/24 01:12:15;;;;;;;31.00;16.95;;;;;;;11.47;100.00;100066.09;5115121;28;20016;-77
2022/05/24 01:14:40;;;;;;;29.70;16.15;;;;;;;11.44;100.00;100076.66;5115155;28;20023;-77
2022/05/24 01:17:06;;;;;;;28.40;15.80;;;;;;;11.41;100.00;100080.28;5113917;28;20463;-77
2022/05/24 01:19:35;;;;;;;28.80;15.07;;;;;;;11.38;100.00;100074.28;5113939;28;20114;-77
2022/05/24 01:22:14;;;;;;;28.45;15.98;;;;;;;11.32;100.00;100074.56;5115095;28;20028;-77
2022/05/24 01:24:49;;;;;;;29.63;15.45;;;;;;;11.32;100.00;100071.94;5114648;28;20066;-78
2022/05/24 01:27:14;;;;;;;26.50;14.63;;;;;;;11.33;100.00;100086.69;5107898;28;20035;-77
2022/05/24 01:29:40;;;;;;;25.67;14.35;;;;;;;11.30;100.00;100089.41;5107174;28;20020;-77
2022/05/24 01:37:33;;;;;;;;;;;;;;;11.27;100.00;100097.34;5100043;28;20046;-77
2022/05/24 01:39:59;;;;;;;20.27;12.57;;;;;;;11.23;100.00;100094.00;5114630;28;20014;-77
2022/05/24 01:42:26;;;;;;;25.17;12.77;;;;;;;11.20;100.00;100091.53;5113829;28;20039;-77
2022/05/24 01:44:58;;;;;;;22.05;11.43;;;;;;;11.19;100.00;100087.22;5114319;28;20031;-77
2022/05/24 01:47:24;;;;;;;21.88;11.48;;;;;;;11.23;100.00;100094.00;5111953;28;20035;-77
2022/05/24 01:49:55;;;;;;;18.25;10.70;;;;;;;11.17;100.00;100092.47;5113483;28;20032;-77
2022/05/24 01:52:26;;;;;;;19.58;10.45;;;;;;;11.15;100.00;100089.09;5114424;27;20114;-77
2022/05/24 01:55:03;;;;;;;21.75;10.10;;;;;;;11.12;100.00;100093.59;5113273;28;20044;-77
2022/05/24 01:57:33;;;;;;;23.65;9.73;;;;;;;11.09;100.00;100097.16;5111984;28;20505;-77
2022/05/24 02:00:01;;;;;;;21.95;9.52;;;;;;;11.10;100.00;100091.00;5114276;28;20110;-77
2022/05/24 02:02:27;;;;;;;15.00;7.97;;;;;;;11.05;100.00;100092.09;5112209;28;20023;-77
2022/05/24 02:04:53;;;;;;;15.27;9.00;;;;;;;11.01;100.00;100081.75;5113239;28;20030;-77
2022/05/24 02:07:24;;;;;;;18.00;8.73;;;;;;;11.01;100.00;100081.75;5105599;28;20036;-77
2022/05/24 02:09:52;;;;;;;20.25;8.52;;;;;;;10.98;100.00;100081.03;5092886;28;20024;-77
2022/05/24 02:12:35;;;;;;;19.67;8.32;;;;;;;11.01;100.00;100086.97;5093351;28;20031;-77
2022/05/24 02:15:13;;;;;;;17.05;7.60;;;;;;;11.01;100.00;100097.41;5093786;28;20024;-77
2022/05/24 02:17:44;;;;;;;14.32;7.00;;;;;;;11.00;100.00;100095.72;5103063;28;20032;-77
2022/05/24 02:20:13;;;;;;;14.27;6.80;;;;;;;11.09;100.00;100094.53;5098137;28;20063;-78
2022/05/24 02:22:40;;;;;;;22.75;8.00;;;;;;;11.08;100.00;100107.63;5091949;28;20028;-77
2022/05/24 02:25:25;;;;;;;16.88;6.32;;;;;;;11.07;100.00;100108.53;5093647;28;20032;-77
2022/05/24 02:27:51;;;;;;;11.68;5.80;;;;;;;11.07;100.00;100105.94;5104938;28;20362;-77
2022/05/24 02:30:25;;;;;;;17.30;6.57;;;;;;;11.08;100.00;100095.44;5111729;28;20099;-77
2022/05/24 02:32:51;;;;;;;21.60;6.13;;;;;;;11.02;100.00;100099.13;5112259;28;20519;-77
2022/05/24 02:35:16;;;;;;;14.85;6.60;;;;;;;11.00;100.00;100100.09;5113264;28;20470;-77
2022/05/24 02:37:45;;;;;;;14.13;6.07;;;;;;;11.00;100.00;100100.94;5101355;28;20126;-78
2022/05/24 02:42:55;;;;;;;19.40;6.85;;;;;;;11.02;100.00;100096.53;5113533;28;20399;-77
2022/05/24 02:45:20;;;;;;;13.18;5.55;;;;;;;11.08;100.00;100102.41;5112383;28;20043;-77
2022/05/24 02:47:45;;;;;;;15.38;6.50;;;;;;;11.04;100.00;100100.81;5111684;28;20020;-77
2022/05/24 02:50:11;;;;;;;16.90;6.03;;;;;;;11.05;100.00;100097.31;5112511;28;20035;-77
2022/05/24 02:52:40;;;;;;;13.93;6.45;;;;;;;11.05;100.00;100099.91;5110851;28;20027;-78
2022/05/24 02:55:07;;;;;;;16.35;5.65;;;;;;;11.05;100.00;100105.13;5113429;28;20020;-77
2022/05/24 02:57:33;;;;;;;13.00;5.30;;;;;;;11.05;100.00;100103.38;5111034;28;20039;-77
2022/05/24 02:59:59;;;;;;;12.23;5.88;;;;;;;11.01;100.00;100092.19;5111544;28;20020;-77
2022/05/24 03:02:24;;;;;;;16.67;5.82;;;;;;;11.02;100.00;100093.91;5112658;28;20498;-77
2022/05/24 03:04:49;;;;;;;12.00;5.13;;;;;;;10.91;100.00;100080.41;5112221;28;20031;-77
2022/05/24 03:09:58;;;;;;;13.25;5.72;;;;;;;10.85;100.00;100095.44;5113164;28;20621;-77
2022/05/24 03:15:08;;;;;;;15.80;6.03;;;;;;;10.86;100.00;100091.94;5112999;28;20088;-77
2022/05/24 03:17:33;;;;;;;11.20;5.38;;;;;;;10.86;100.00;100092.78;5110849;28;20467;-77
2022/05/24 03:19:58;;;;;;;12.60;5.97;;;;;;;10.91;100.00;100100.44;5112165;28;20023;-77
2022/05/24 03:22:23;;;;;;;16.48;6.25;;;;;;;10.86;100.00;100100.59;5112632;28;20440;-77
2022/05/24 03:24:49;;;;;;;15.80;5.93;;;;;;;10.94;100.00;100106.38;5111280;28;20035;-77
2022/05/24 03:27:14;;;;;;;15.23;6.70;;;;;;;10.93;100.00;100106.44;5109538;28;20030;-77
2022/05/24 03:29:45;;;;;;;15.07;6.30;;;;;;;10.92;100.00;100110.81;5112249;27;20023;-77
2022/05/24 03:32:12;;;;;;;16.65;7.00;;;;;;;10.92;100.00;100109.94;5112502;28;20036;-77
2022/05/24 03:34:38;;;;;;;15.27;6.13;;;;;;;10.87;100.00;100114.50;5111677;28;20475;-77
2022/05/24 03:37:04;;;;;;;15.70;6.20;;;;;;;10.81;100.00;100101.66;5105267;28;20028;-77
2022/05/24 03:39:30;;;;;;;15.25;6.13;;;;;;;10.84;100.00;100099.81;5091963;28;20042;-77
2022/05/24 03:41:55;;;;;;;11.88;6.13;;;;;;;10.85;100.00;100105.88;5091109;28;20052;-79
2022/05/24 03:44:20;;;;;;;15.38;6.88;;;;;;;10.86;100.00;100104.97;5092018;28;20387;-77
2022/05/24 03:46:46;;;;;;;16.02;7.15;;;;;;;10.88;100.00;100101.38;5091323;28;20027;-77
2022/05/24 03:49:14;;;;;;;14.77;6.90;;;;;;;10.90;100.00;100099.59;5109205;28;20027;-78
2022/05/24 03:51:39;;;;;;;15.15;7.43;;;;;;;10.92;100.00;100103.00;5112339;28;20051;-77
2022/05/24 03:54:06;;;;;;;14.82;7.10;;;;;;;10.94;100.00;100122.03;5109832;28;20075;-77
2022/05/24 03:56:32;;;;;;;18.15;7.68;;;;;;;10.93;100.00;100145.56;5109447;28;20032;-78
2022/05/24 03:58:57;;;;;;;17.90;7.60;;;;;;;10.95;100.00;100128.09;5110742;28;20069;-77
2022/05/24 04:01:23;;;;;;;14.50;7.30;;;;;;;10.94;100.00;100135.06;5111565;28;20019;-78
2022/05/24 04:03:48;;;;;;;17.67;7.25;;;;;;;10.94;100.00;100153.31;5113827;28;20016;-77
2022/05/24 04:06:14;;;;;;;18.88;6.82;;;;;;;10.93;100.00;100156.84;5116283;28;20030;-77
2022/05/24 04:08:39;;;;;;;18.52;6.80;;;;;;;10.96;100.00;100159.34;5112211;28;20019;-77
2022/05/24 04:11:10;;;;;;;10.93;5.80;;;;;;;10.98;100.00;100161.88;5095938;28;20023;-78
2022/05/24 04:13:37;;;;;;;15.35;6.55;;;;;;;11.04;100.00;100179.94;5105897;28;20034;-77
2022/05/24 04:16:07;;;;;;;16.25;6.15;;;;;;;11.09;100.00;100169.34;5115638;28;20364;-78
2022/05/24 04:18:33;;;;;;;15.85;6.20;;;;;;;11.11;100.00;100164.91;5097447;28;20032;-77
2022/05/24 04:20:59;;;;;;;15.40;5.68;;;;;;;11.08;100.00;100158.03;5101222;28;20020;-78
2022/05/24 04:23:25;;;;;;;14.07;5.35;;;;;;;11.05;100.00;100139.03;5106989;28;20076;-77
2022/05/24 04:25:51;;;;;;;12.10;5.10;;;;;;;11.02;100.00;100129.59;5095320;28;20036;-78
2022/05/24 04:28:20;;;;;;;11.43;5.22;;;;;;;10.98;100.00;100128.81;5101867;28;20040;-77
2022/05/24 04:30:49;;;;;;;17.17;5.15;;;;;;;10.95;100.00;100142.00;5111275;28;20028;-77
2022/05/24 04:33:16;;;;;;;16.63;5.72;;;;;;;10.89;100.00;100157.00;5114674;28;20030;-77
2022/05/24 04:35:43;;;;;;;9.25;5.18;;;;;;;10.90;100.00;100179.56;5115725;28;20031;-77
2022/05/24 04:38:08;;;;;;;14.90;5.63;;;;;;;10.90;100.00;100192.63;5113999;28;20371;-77
2022/05/24 04:43:17;;;;;;;14.63;5.75;;;;;;;10.98;100.00;100167.94;5113972;28;20107;-77
2022/05/24 04:45:42;;;;;;;12.02;5.65;;;;;;;10.98;100.00;100165.34;5113989;28;20110;-77
2022/05/24 04:48:08;;;;;;;13.93;4.97;;;;;;;10.99;100.00;100168.81;5114271;28;20031;-77
2022/05/24 04:50:34;;;;;;;16.98;5.55;;;;;;;11.01;100.00;100180.88;5114279;28;20530;-77
2022/05/24 04:53:00;;;;;;;12.93;5.20;;;;;;;11.04;100.00;100174.72;5115389;28;20044;-77
2022/05/24 04:55:26;;;;;;;11.68;5.07;;;;;;;11.02;100.00;100179.16;5113426;28;20038;-77
2022/05/24 04:57:53;;;;;;;12.52;4.68;;;;;;;11.01;100.00;100191.31;5111581;28;20067;-77
2022/05/24 05:00:20;;;;;;;15.77;4.68;;;;;;;11.05;100.00;100193.81;5115410;28;20026;-77
2022/05/24 05:02:45;;;;;;;14.73;4.90;;;;;;;11.06;100.00;100214.66;5115174;28;20035;-77
2022/05/24 05:05:11;;;;;;;12.82;4.47;;;;;;;11.06;100.00;100213.78;5113032;28;20028;-77
2022/05/24 05:07:36;;;;;;;11.68;4.40;;;;;;;11.10;100.00;100212.78;5113033;28;20495;-77
2022/05/24 05:10:01;;;;;;;15.30;4.55;;;;;;;11.12;100.00;100218.81;5115353;28;20034;-77
2022/05/24 05:12:27;;;;;;;13.43;4.32;;;;;;;11.12;100.00;100230.09;5113470;28;20028;-77
2022/05/24 05:14:52;;;;;;;15.15;4.18;;;;;;;11.13;100.00;100231.78;5112713;28;20047;-78
2022/05/24 05:17:18;;;;;;;17.52;4.55;;;;;;;11.15;100.00;100244.75;5102974;28;20035;-78
2022/05/24 05:19:45;;;;;;;10.80;4.75;;;;;;;11.17;100.00;100229.91;5112907;27;20027;-78
2022/05/24 05:22:11;;;;;;;15.23;4.53;;;;;;;11.23;100.00;100227.09;5096877;28;20111;-77
2022/05/24 05:24:36;;;;;;;12.93;4.35;;;;;;;11.20;100.00;100217.59;5113815;28;20450;-77
2022/05/24 05:27:03;;;;;;;12.57;4.15;;;;;;;11.23;100.00;100219.25;5114449;28;20016;-77
2022/05/24 05:32:20;;;;;;;11.45;3.92;;;;;;;11.21;100.00;100229.72;5096039;28;20168;-77
2022/05/24 05:34:47;;;;;;;14.43;4.32;;;;;;;11.21;100.00;100211.47;5104543;28;20148;-77
2022/05/24 05:37:12;;;;;;;13.25;4.15;;;;;;;11.23;100.00;100214.88;5112674;28;20100;-77
2022/05/24 05:39:37;;;;;;;13.75;4.30;;;;;;;11.27;100.00;100215.63;5113777;28;20490;-77
2022/05/24 05:42:03;;;;;;;12.82;4.35;;;;;;;11.35;100.00;100216.22;5113502;28;20116;-77
2022/05/24 05:44:29;;;;;;;9.55;3.67;;;;;;;11.36;100.00;100217.91;5114430;28;20023;-77
2022/05/24 05:46:55;;;;;;;8.20;3.45;;;;;;;11.36;100.00;100220.50;5109558;28;20031;-77
2022/05/24 05:49:21;;;;;;;7.85;3.80;;;;;;;11.29;100.00;100229.47;5099449;28;20055;-77
2022/05/24 05:51:46;;;;;;;9.77;3.67;;;;;;;11.16;100.00;100243.88;5105551;28;20040;-77
2022/05/24 05:54:11;;;;;;;9.13;4.03;;;;;;;11.06;100.00;100245.94;5093022;28;20047;-77
2022/05/24 05:56:37;;;;;;;11.23;3.95;;;;;;;10.95;100.00;100258.50;5103349;28;20436;-77
2022/05/24 05:59:02;;;;;;;9.52;3.55;;;;;;;10.90;100.00;100260.41;5114299;28;20026;-77
2022/05/24 06:01:31;;;;;;;13.15;3.85;;;;;;;10.83;100.00;100257.16;5102010;28;20026;-77
2022/05/24 06:03:57;;;;;;;11.85;4.07;;;;;;;10.92;100.00;100269.03;5093841;28;20372;-77
2022/05/24 06:06:25;;;;;;;14.70;3.95;;;;;;;10.99;100.00;100275.75;5093809;28;20035;-77
2022/05/24 06:08:51;;;;;;;11.70;4.22;;;;;;;11.12;100.00;100273.59;5092888;28;20036;-77
2022/05/24 06:11:16;;;;;;;14.52;4.13;;;;;;;11.31;100.00;100266.78;5098993;28;20031;-77
2022/05/24 06:13:42;;;;;;;11.30;4.05;;;;;;;11.45;100.00;100275.00;5113036;28;20107;-77
2022/05/24 06:16:10;;;;;;;12.25;3.83;;;;;;;11.58;100.00;100275.41;5113077;28;20475;-77
2022/05/24 06:18:36;;;;;;;16.02;4.45;;;;;;;11.72;100.00;100278.34;5111863;28;20023;-77
2022/05/24 06:21:01;;;;;;;10.52;4.00;;;;;;;11.84;100.00;100282.31;5111487;28;20035;-77
2022/05/24 06:23:27;;;;;;;11.75;3.30;;;;;;;11.88;100.00;100278.66;5111659;28;20060;-77
2022/05/24 06:25:52;;;;;;;9.23;3.40;;;;;;;12.04;100.00;100270.25;5112584;28;20057;-77
2022/05/24 06:28:18;;;;;;;12.65;3.47;;;;;;;12.15;100.00;100281.13;5111506;28;20490;-77
2022/05/24 06:30:43;;;;;;;12.63;3.53;;;;;;;12.13;100.00;100280.31;5103671;28;20031;-77
2022/05/24 06:33:11;;;;;;;7.00;3.60;;;;;;;12.29;100.00;100272.72;5107224;28;20031;-77
2022/05/24 06:35:38;;;;;;;14.23;3.78;;;;;;;12.29;100.00;100284.03;5112266;28;20035;-77
2022/05/24 06:38:04;;;;;;;9.38;3.40;;;;;;;12.11;99.08;100283.00;5101212;28;20486;-77
2022/05/24 06:40:29;;;;;;;11.82;3.58;;;;;;;12.01;100.00;100286.88;5092972;28;20040;-77
2022/05/24 06:42:55;;;;;;;8.48;3.35;;;;;;;12.01;100.00;100281.66;5101816;28;20391;-77
2022/05/24 06:45:20;;;;;;;8.68;3.78;;;;;;;12.06;100.00;100307.59;5113065;28;20043;-77
2022/05/24 06:47:46;;;;;;;14.18;4.00;;;;;;;12.15;100.00;100302.88;5112001;28;20031;-77
2022/05/24 06:50:13;;;;;;;13.75;3.88;;;;;;;12.19;100.00;100309.69;5112385;28;20074;-77
2022/05/24 06:52:38;;;;;;;8.10;3.55;;;;;;;12.22;100.00;100319.16;5109461;28;20023;-77
2022/05/24 06:55:05;;;;;;;12.25;3.80;;;;;;;12.57;100.00;100309.94;5113384;28;20024;-77
2022/05/24 06:57:31;;;;;;;13.10;3.65;;;;;;;12.79;99.61;100315.16;5110869;27;20059;-77
2022/05/24 07:02:40;;;;;;;;;;;;;;;13.13;100.00;100326.84;5111570;28;20046;-77
2022/05/24 07:05:07;;;;;;;8.35;3.80;;;;;;;13.18;97.79;100322.28;5111185;28;20338;-77
2022/05/24 07:07:34;;;;;;;10.95;3.45;;;;;;;13.23;97.28;100311.59;5112356;28;20481;-77
2022/05/24 07:10:01;;;;;;;7.30;2.95;;;;;;;13.21;97.30;100326.50;5113020;28;20055;-77
2022/05/24 07:12:27;;;;;;;9.90;3.30;;;;;;;13.34;91.50;100341.69;5111913;28;20099;-77
2022/05/24 07:14:53;;;;;;;10.48;3.53;;;;;;;13.51;95.45;100334.84;5112803;28;20103;-77
2022/05/24 07:17:20;;;;;;;9.07;3.15;;;;;;;13.78;97.10;100338.03;5110770;28;20028;-77
2022/05/24 07:19:46;;;;;;;13.65;3.10;;;;;;;13.87;92.14;100334.16;5099787;28;20024;-77
2022/05/24 07:22:12;;;;;;;4.80;2.53;;;;;;;13.79;91.70;100337.09;5111439;28;20126;-77
2022/05/24 07:24:38;;;;;;;11.02;2.63;;;;;;;13.66;91.43;100334.16;5113037;28;20020;-77
2022/05/24 07:27:07;;;;;;;8.55;2.55;;;;;;;13.56;91.60;100345.97;5111858;28;20386;-77
2022/05/24 07:29:33;;;;;;;8.75;2.80;;;;;;;13.57;93.02;100353.78;5103450;28;20085;-77
2022/05/24 07:31:58;;;;;;;11.75;2.90;;;;;;;13.41;90.77;100339.66;5110323;28;20042;-77
2022/05/24 07:34:24;;;;;;;4.63;2.50;;;;;;;13.36;93.83;100357.31;5111946;28;20471;-77
2022/05/24 07:36:49;;;;;;;5.63;2.58;;;;;;;13.48;94.71;100353.31;5112040;28;20523;-77
2022/05/24 07:39:14;;;;;;;7.70;2.70;;;;;;;13.44;91.60;100356.97;5111527;28;20371;-77
2022/05/24 07:45:48;;;;;;;6.03;2.40;;;;;;;13.83;87.92;100364.84;5044763;28;20032;-76
2022/05/24 07:47:35;;;;;;;5.82;2.30;;;;;;;13.88;87.39;100365.50;5052512;28;20037;-77
2022/05/24 07:50:00;;;;;;;7.45;3.20;;;;;;;13.96;86.94;100360.78;5082118;28;20059;-77
2022/05/24 07:52:26;;;;;;;5.60;2.55;;;;;;;14.12;88.10;100368.78;5097718;28;20468;-77
2022/05/24 07:54:51;;;;;;;7.07;3.00;;;;;;;14.09;88.11;100368.91;5105161;28;20149;-76
2022/05/24 07:57:17;;;;;;;9.52;2.85;;;;;;;14.14;89.93;100371.34;5092329;28;20032;-76
2022/05/24 07:59:43;;;;;;;7.65;3.25;;;;;;;14.19;86.72;100372.84;5091670;28;20086;-76
2022/05/24 08:02:09;;;;;;;8.68;3.42;;;;;;;14.24;85.44;100376.09;5091263;28;20552;-76
2022/05/24 08:04:34;;;;;;;5.32;2.88;;;;;;;14.39;87.59;100377.16;5091562;28;20055;-76
2022/05/24 08:07:00;;;;;;;8.88;3.10;;;;;;;14.53;86.77;100366.06;5092129;28;20028;-76
2022/05/24 08:09:26;;;;;;;5.22;2.97;;;;;;;14.77;86.38;100368.41;5091131;28;20012;-76
2022/05/24 08:11:51;;;;;;;7.10;3.30;;;;;;;14.74;79.90;100380.75;5102396;28;20031;-76
2022/05/24 08:14:17;;;;;;;6.28;3.30;;;;;;;14.59;79.46;100384.13;5110293;28;20039;-76
2022/05/24 08:16:42;;;;;;;7.85;3.63;;;;;;;14.33;80.89;100384.47;5111860;28;20410;-76
2022/05/24 08:19:08;;;;;;;7.50;3.70;;;;;;;14.36;84.60;100376.47;5109294;28;20023;-82
2022/05/24 08:21:34;;;;;;;8.52;3.70;;;;;;;14.79;82.38;100390.19;5107631;28;20811;-76
2022/05/24 08:24:00;;;;;;;6.40;4.18;;;;;;;15.10;86.79;100384.28;5111992;28;20038;-76
2022/05/24 08:26:25;;;;;;;6.22;3.10;;;;;;;14.98;80.17;100404.97;5110065;28;20034;-76
2022/05/24 08:28:51;;;;;;;10.07;3.20;;;;;;;14.82;80.04;100409.28;5109542;28;20477;-75
2022/05/24 08:31:17;;;;;;;7.00;2.75;;;;;;;14.68;77.22;100412.56;5107404;28;20055;-76
2022/05/24 08:33:44;;;;;;;6.53;2.65;;;;;;;14.77;78.42;100413.88;5111643;28;20035;-76
2022/05/24 08:36:10;;;;;;;5.65;2.80;;;;;;;14.82;83.22;100414.53;5110923;28;20045;-76
2022/05/24 08:38:36;;;;;;;9.52;3.03;;;;;;;14.72;78.35;100419.34;5111946;28;20028;-76
2022/05/24 08:41:06;;;;;;;6.32;2.67;;;;;;;14.50;78.95;100429.13;5111628;28;20028;-76
2022/05/24 08:49:54;;;;;;;5.10;2.30;;;;;;;14.46;83.13;100445.91;5096669;28;20042;-76
2022/05/24 08:52:22;;;;;;;5.97;2.30;;;;;;;14.41;81.56;100447.88;5111745;28;20054;-76
2022/05/24 08:54:47;;;;;;;5.20;2.28;;;;;;;14.39;84.69;100447.97;5112219;27;20100;-76
2022/05/24 08:57:29;;;;;;;7.10;2.30;;;;;;;14.36;83.41;100450.72;5098028;28;20395;-75
2022/05/24 09:00:03;;;;;;;4.22;2.20;;;;;;;14.40;84.32;100446.19;5114067;28;20035;-75
2022/05/24 09:02:28;;;;;;;4.03;1.85;;;;;;;14.46;81.13;100454.63;5114997;28;20067;-76
2022/05/24 09:04:54;;;;;;;4.25;2.00;;;;;;;14.46;83.73;100461.66;5114295;28;20062;-76
2022/05/24 09:07:31;;;;;;;3.40;2.20;;;;;;;14.37;81.99;100469.94;5115253;28;20023;-76
2022/05/24 09:10:12;;;;;;;3.00;2.17;;;;;;;14.42;84.92;100473.19;5115514;28;20031;-76
2022/05/24 09:13:14;;;;;;;3.95;2.17;;;;;;;14.65;81.78;100475.66;5114289;28;20471;-75
2022/05/24 09:15:56;;;;;;;6.10;2.80;;;;;;;14.95;76.20;100480.41;5113072;28;20085;-76
2022/05/24 09:18:57;;;;;;;3.78;3.10;;;;;;;15.31;80.35;100479.56;5093952;28;20020;-76
2022/05/24 09:21:25;;;;;;;4.75;3.50;;;;;;;15.36;74.97;100478.38;5083228;28;20036;-76
2022/05/24 09:23:55;;;;;;;8.15;3.92;;;;;;;15.45;77.79;100490.22;5094336;28;20039;-76
2022/05/24 09:26:22;;;;;;;7.20;3.65;;;;;;;15.33;78.71;100490.81;5093585;28;20403;-76
2022/05/24 09:28:58;;;;;;;8.50;3.33;;;;;;;15.12;76.40;100490.94;5094521;28;20098;-76
2022/05/24 09:31:38;;;;;;;4.22;2.95;;;;;;;14.82;75.78;100497.66;5094370;28;20035;-76
2022/05/24 09:34:10;;;;;;;6.93;3.20;;;;;;;14.80;75.19;100500.34;5095034;28;20031;-76
2022/05/24 09:36:39;;;;;;;7.70;3.90;;;;;;;15.04;78.44;100500.09;5094010;28;20067;-75
2022/05/24 09:39:20;;;;;;;6.00;4.55;;;;;;;15.23;73.35;100507.03;5093720;28;20061;-76
2022/05/24 09:42:02;;;;;;;4.47;3.83;;;;;;;15.46;72.95;100502.44;5094188;28;20016;-76
2022/05/24 09:44:29;;;;;;;5.15;4.65;;;;;;;15.56;71.70;100508.94;5094063;28;20024;-75
2022/05/24 09:46:55;;;;;;;5.57;5.07;;;;;;;15.68;76.13;100507.50;5113837;28;20027;-75
2022/05/24 09:49:34;;;;;;;10.30;5.25;;;;;;;15.89;76.30;100498.56;5114182;28;20092;-75
2022/05/24 09:52:14;;;;;;;6.63;5.03;;;;;;;15.76;73.81;100510.63;5094201;28;20040;-76
2022/05/24 09:54:56;;;;;;;5.60;4.97;;;;;;;15.66;76.04;100514.56;5092902;28;20052;-75
2022/05/24 09:57:33;;;;;;;8.38;5.05;;;;;;;15.80;72.93;100508.69;5093845;28;20073;-75
2022/05/24 10:00:23;;;;;;;7.25;5.28;;;;;;;15.96;69.29;100506.09;5093355;28;20016;-75
2022/05/24 10:03:02;;;;;;;6.25;5.65;;;;;;;16.54;73.19;100498.66;5093696;28;20028;-75
2022/05/24 10:05:28;;;;;;;7.90;5.47;;;;;;;17.01;66.19;100500.53;5093895;28;20148;-75
2022/05/24 10:08:04;;;;;;;5.35;4.85;;;;;;;17.25;65.74;100507.97;5105019;28;20044;-75
2022/05/24 10:10:38;;;;;;;5.00;4.50;;;;;;;17.25;64.66;100515.88;5106912;28;20538;-75
2022/05/24 10:13:25;;;;;;;5.63;4.72;;;;;;;17.45;69.49;100517.38;5097612;27;20449;-75
2022/05/24 10:16:06;;;;;;;5.65;4.35;;;;;;;17.87;64.32;100519.34;5097466;28;20067;-75
2022/05/24 10:19:01;;;;;;;6.05;4.40;;;;;;;18.46;61.21;100520.16;5106247;28;20111;-76
2022/05/24 10:21:39;;;;;;;8.65;4.95;;;;;;;18.82;61.06;100520.66;5104886;28;20028;-76
2022/05/24 10:24:43;;;;;;;7.72;4.90;;;;;;;18.49;60.85;100516.50;5107967;28;20116;-76
2022/05/24 10:27:24;;;;;;;9.97;5.27;;;;;;;18.41;61.24;100527.53;5100540;28;20580;-75
2022/05/24 10:30:21;;;;;;;6.18;4.40;;;;;;;18.88;64.01;100529.03;5106108;28;20050;-75
2022/05/24 10:38:44;;;;;;;5.05;4.25;;;;;;;19.48;51.49;100527.81;5104298;28;20039;-75
2022/05/24 10:41:15;;;;;;;8.43;5.93;;;;;;;19.01;54.31;100534.41;5113433;27;20103;-75
2022/05/24 10:44:03;;;;;;;6.60;6.00;;;;;;;18.51;61.90;100540.16;5110637;28;20035;-75
2022/05/24 10:46:47;;;;;;;6.85;5.45;;;;;;;18.34;57.56;100538.53;5106105;28;20032;-75
2022/05/24 10:49:25;;;;;;;6.30;5.53;;;;;;;18.12;59.01;100539.84;5095734;28;20031;-75
2022/05/24 10:52:00;;;;;;;6.18;4.78;;;;;;;18.27;60.17;100537.22;5106958;28;20035;-75
2022/05/24 10:54:58;;;;;;;7.68;6.13;;;;;;;18.69;57.17;100531.09;5105091;28;20100;-75
2022/05/24 10:57:56;;;;;;;6.10;5.50;;;;;;;19.06;57.48;100528.81;5077608;28;20127;-75
2022/05/24 11:00:26;;;;;;;6.20;5.60;;;;;;;18.81;58.41;100542.75;5110930;28;20099;-75
2022/05/24 11:03:16;;;;;;;6.28;5.68;;;;;;;18.90;54.17;100537.72;5112903;28;20048;-75
2022/05/24 11:05:47;;;;;;;6.03;5.50;;;;;;;19.31;58.62;100543.94;5109614;28;20046;-75
2022/05/24 11:08:31;;;;;;;6.32;5.72;;;;;;;19.78;57.28;100538.22;5109027;28;20107;-75
2022/05/24 11:11:01;;;;;;;6.22;5.63;;;;;;;19.70;51.88;100535.22;5095170;28;20027;-75
2022/05/24 11:13:36;;;;;;;13.23;4.90;;;;;;;19.86;52.66;100522.69;5090160;28;20061;-75
2022/05/24 11:16:08;;;;;;;7.50;4.78;;;;;;;19.94;52.62;100530.09;5101893;28;21911;-75
2022/05/24 11:18:33;;;;;;;6.88;5.60;;;;;;;20.30;52.33;100528.53;5095365;28;20036;-74
2022/05/24 11:21:10;;;;;;;6.90;5.18;;;;;;;20.56;51.77;100532.03;5092123;28;20028;-75
2022/05/24 11:23:45;;;;;;;5.95;4.93;;;;;;;20.60;51.21;100541.50;5095096;28;20375;-75
2022/05/24 11:26:15;;;;;;;8.57;5.85;;;;;;;20.95;50.94;100540.78;5092677;28;20110;-77
2022/05/24 11:28:50;;;;;;;9.68;5.30;;;;;;;21.30;54.81;100555.94;5101245;28;20038;-75
2022/05/24 11:31:36;;;;;;;5.53;4.97;;;;;;;21.58;50.17;100541.53;5103657;28;20028;-75
2022/05/24 11:34:11;;;;;;;5.10;4.70;;;;;;;21.55;48.50;100545.28;5092405;28;20039;-75
2022/05/24 11:36:39;;;;;;;5.38;4.85;;;;;;;20.69;51.53;100542.63;5091640;28;20601;-75
2022/05/24 11:39:23;;;;;;;6.47;4.88;;;;;;;19.85;52.36;100557.19;5100906;28;20028;-75
2022/05/24 11:41:49;;;;;;;5.85;4.15;;;;;;;20.01;53.57;100551.69;5094107;28;20028;-75
2022/05/24 11:44:32;;;;;;;4.70;4.30;;;;;;;20.53;53.53;100558.75;5090790;28;20569;-75
2022/05/24 11:46:57;;;;;;;4.53;4.10;;;;;;;21.48;50.61;100558.13;5097183;28;20132;-75
2022/05/24 11:49:22;;;;;;;5.07;4.10;;;;;;;22.36;45.66;100562.19;5093494;28;20476;-74
2022/05/24 11:51:53;;;;;;;4.93;4.40;;;;;;;22.43;46.15;100563.38;5100912;28;20035;-75
2022/05/24 11:54:18;;;;;;;5.30;4.80;;;;;;;21.63;45.38;100576.53;5093558;28;20330;-75
2022/05/24 11:57:01;;;;;;;4.53;4.13;;;;;;;22.32;49.29;100572.19;5097673;28;20119;-76
2022/05/24 11:59:39;;;;;;;5.88;4.45;;;;;;;23.25;42.91;100573.78;5098371;28;20294;-75
2022/05/24 12:02:24;;;;;;;6.32;4.00;;;;;;;22.05;45.82;100579.59;5102948;28;20063;-78
2022/05/24 12:08:05;;;;;;;5.88;4.20;;;;;;;19.89;49.33;100587.78;5110501;28;20089;-77
2022/05/24 12:10:46;;;;;;;5.00;3.45;;;;;;;19.05;52.17;100601.09;5109062;28;20032;-77